RJAZ(METAR)
04/26 16:00
RJAZ 260700Z 10006KT 9999 FEW011 BKN047 17/15 Q1003 RMK A2963=
戻る
トップページへ戻る
IMOC Co,.Ltd.